createdAt,value
2023-01-23T00:00:16.805Z,95460.19
2023-01-23T00:03:19.903Z,95467.53
2023-01-23T00:06:24.833Z,95458.75
2023-01-23T00:09:27.812Z,95466.75
2023-01-23T00:12:30.828Z,95469.69
2023-01-23T00:15:36.503Z,95472.06
2023-01-23T00:18:39.551Z,95471.47
2023-01-23T00:21:43.919Z,95468.03
2023-01-23T00:24:47.084Z,95465.75
2023-01-23T00:27:50.110Z,95463.28
2023-01-23T00:30:54.739Z,95465.38
2023-01-23T00:34:02.524Z,95465.38
2023-01-23T00:37:09.039Z,95463.50
2023-01-23T00:40:14.431Z,95470.69
2023-01-23T00:43:17.614Z,95470.69
2023-01-23T00:46:23.229Z,95477.59
2023-01-23T00:49:26.776Z,95478.38
2023-01-23T00:52:31.191Z,95464.97
2023-01-23T00:55:36.293Z,95478.97
2023-01-23T00:58:40.599Z,95477.41
2023-01-23T01:01:43.695Z,95480.84
2023-01-23T01:04:49.086Z,95478.97
2023-01-23T01:07:53.504Z,95462.94
2023-01-23T01:10:56.526Z,95484.88
2023-01-23T01:14:01.900Z,95490.22
2023-01-23T01:17:06.937Z,95486.75
2023-01-23T01:20:10.960Z,95493.97
2023-01-23T01:23:15.967Z,95494.75
2023-01-23T01:26:21.374Z,95502.25
2023-01-23T01:29:24.665Z,95503.03
2023-01-23T01:32:27.685Z,95503.81
2023-01-23T01:35:33.117Z,95509.94
2023-01-23T01:38:37.824Z,95518.72
2023-01-23T01:41:40.863Z,95499.72
2023-01-23T01:44:56.251Z,95509.16
2023-01-23T01:47:59.331Z,95517.63
2023-01-23T01:51:04.210Z,95513.41
2023-01-23T01:54:17.891Z,95504.97
2023-01-23T01:57:23.358Z,95505.19
2023-01-23T02:00:26.445Z,95510.22
2023-01-23T02:03:29.867Z,95512.41
2023-01-23T02:06:33.262Z,95513.19
2023-01-23T02:09:37.723Z,95516.94
2023-01-23T02:12:41.110Z,95513.97
2023-01-23T02:15:44.241Z,95516.66
2023-01-23T02:18:50.319Z,95520.38
2023-01-23T02:21:56.892Z,95517.19
2023-01-23T02:25:10.145Z,95512.66
2023-01-23T02:28:24.684Z,95517.72
2023-01-23T02:31:28.253Z,95520.38
2023-01-23T02:34:31.271Z,95514.28
2023-01-23T02:37:35.665Z,95520.38
2023-01-23T02:40:43.583Z,95518.28
2023-01-23T02:43:51.480Z,95519.59
2023-01-23T02:46:55.007Z,95506.63
2023-01-23T02:49:58.075Z,95520.38
2023-01-23T02:53:01.135Z,95505.63
2023-01-23T02:56:04.139Z,95507.13
2023-01-23T02:59:25.825Z,95525.72
2023-01-23T03:02:29.005Z,95508.66
2023-01-23T03:05:32.017Z,95506.00
2023-01-23T03:08:36.820Z,95508.13
2023-01-23T03:11:41.542Z,95517.19
2023-01-23T03:14:45.986Z,95499.94
2023-01-23T03:17:48.975Z,95511.09
2023-01-23T03:20:51.998Z,95511.88
2023-01-23T03:23:57.567Z,95506.84
2023-01-23T03:27:00.580Z,95509.22
2023-01-23T03:30:13.451Z,95489.75
2023-01-23T03:33:16.465Z,95499.63
2023-01-23T03:36:19.426Z,95490.88
2023-01-23T03:39:39.995Z,95501.22
2023-01-23T03:42:43.030Z,95495.09
2023-01-23T03:45:50.061Z,95508.41
2023-01-23T03:48:53.120Z,95506.53
2023-01-23T03:51:56.129Z,95511.09
2023-01-23T03:54:59.231Z,95513.44
2023-01-23T03:58:02.219Z,95508.50
2023-01-23T04:01:09.709Z,95517.50
2023-01-23T04:04:12.766Z,95520.94
2023-01-23T04:07:15.879Z,95524.94
2023-01-23T04:10:19.338Z,95532.03
2023-01-23T04:13:22.597Z,95535.84
2023-01-23T04:16:30.858Z,95535.13
2023-01-23T04:19:35.174Z,95526.50
2023-01-23T04:22:38.248Z,95538.59
2023-01-23T04:25:41.325Z,95536.50
2023-01-23T04:28:44.383Z,95530.53
2023-01-23T04:31:48.919Z,95546.28
2023-01-23T04:34:52.033Z,95552.91
2023-01-23T04:37:55.250Z,95553.69
2023-01-23T04:40:58.643Z,95550.22
2023-01-23T04:44:30.002Z,95551.91
2023-01-23T04:47:34.366Z,95566.22
2023-01-23T04:50:37.470Z,95553.53
2023-01-23T04:53:40.563Z,95559.78
2023-01-23T04:56:43.742Z,95554.03
2023-01-23T04:59:46.803Z,95550.44
2023-01-23T05:02:51.765Z,95556.81
2023-01-23T05:05:54.873Z,95556.13
2023-01-23T05:08:57.935Z,95560.88
2023-01-23T05:12:03.582Z,95562.25
2023-01-23T05:15:10.000Z,95560.66
2023-01-23T05:18:14.475Z,95577.72
2023-01-23T05:21:17.500Z,95566.56
2023-01-23T05:24:20.534Z,95582.25
2023-01-23T05:27:23.496Z,95580.03
2023-01-23T05:30:26.598Z,95576.00
2023-01-23T05:33:31.102Z,95572.03
2023-01-23T05:36:34.185Z,95567.56
2023-01-23T05:39:37.174Z,95540.25
2023-01-23T05:42:40.205Z,95579.81
2023-01-23T05:45:45.261Z,95577.72
2023-01-23T05:48:51.750Z,95578.59
2023-01-23T05:51:54.776Z,95582.63
2023-01-23T05:54:57.979Z,95604.34
2023-01-23T05:58:01.054Z,95611.56
2023-01-23T06:01:04.623Z,95608.31
2023-01-23T06:04:09.046Z,95610.75
2023-01-23T06:07:14.761Z,95614.00
2023-01-23T06:10:18.366Z,95629.91
2023-01-23T06:13:24.098Z,95617.66
2023-01-23T06:16:27.075Z,95629.69
2023-01-23T06:19:31.503Z,95632.06
2023-01-23T06:22:34.599Z,95601.56
2023-01-23T06:25:37.842Z,95642.72
2023-01-23T06:28:46.053Z,95648.34
2023-01-23T06:31:51.022Z,95648.13
2023-01-23T06:34:58.262Z,95653.44
2023-01-23T06:38:01.371Z,95654.25
2023-01-23T06:41:04.441Z,95659.78
2023-01-23T06:44:07.927Z,95664.91
2023-01-23T06:47:10.997Z,95682.97
2023-01-23T06:50:15.510Z,95674.97
2023-01-23T06:53:21.575Z,95655.13
2023-01-23T06:56:26.615Z,95682.75
2023-01-23T06:59:29.623Z,95673.69
2023-01-23T07:02:32.701Z,95676.97
2023-01-23T07:05:39.584Z,95693.91
2023-01-23T07:08:43.576Z,95690.22
2023-01-23T07:11:46.549Z,95700.59
2023-01-23T07:14:49.631Z,95705.41
2023-01-23T07:17:52.622Z,95712.31
2023-01-23T07:21:01.635Z,95717.66
2023-01-23T07:24:04.843Z,95716.38
2023-01-23T07:27:07.850Z,95722.78
2023-01-23T07:30:12.478Z,95728.09
2023-01-23T07:33:15.524Z,95730.22
2023-01-23T07:36:20.076Z,95732.38
2023-01-23T07:39:23.121Z,95736.63
2023-01-23T07:42:26.285Z,95738.50
2023-01-23T07:45:29.303Z,95745.13
2023-01-23T07:48:32.284Z,95742.47
2023-01-23T07:51:37.320Z,95745.66
2023-01-23T07:54:40.357Z,95747.97
2023-01-23T07:57:43.761Z,95743.72
2023-01-23T08:00:46.834Z,95748.19
2023-01-23T08:03:49.957Z,95755.66
2023-01-23T08:06:54.397Z,95752.56
2023-01-23T08:09:57.587Z,95760.59
2023-01-23T08:13:00.563Z,95761.16
2023-01-23T08:16:04.071Z,95766.78
2023-01-23T08:19:09.951Z,95756.13
2023-01-23T08:22:14.407Z,95767.06
2023-01-23T08:25:17.616Z,95774.53
2023-01-23T08:28:20.595Z,95784.63
2023-01-23T08:31:26.866Z,95768.50
2023-01-23T08:34:31.946Z,95782.25
2023-01-23T08:37:37.066Z,95784.91
2023-01-23T08:40:48.992Z,95776.47
2023-01-23T08:43:53.889Z,95779.06
2023-01-23T08:46:56.874Z,95785.19
2023-01-23T08:49:59.987Z,95781.75
2023-01-23T08:53:04.432Z,95784.13
2023-01-23T08:56:09.691Z,95791.59
2023-01-23T08:59:12.714Z,95795.84
2023-01-23T09:02:15.847Z,95796.63
2023-01-23T09:05:19.207Z,95795.84
2023-01-23T09:08:23.624Z,95792.66
2023-01-23T09:11:28.741Z,95794.25
2023-01-23T09:14:31.821Z,95795.63
2023-01-23T09:17:34.985Z,95781.22
2023-01-23T09:20:39.378Z,95788.47
2023-01-23T09:23:43.962Z,95779.69
2023-01-23T09:26:46.925Z,95794.81
2023-01-23T09:29:50.891Z,95799.59
2023-01-23T09:32:54.746Z,95789.50
2023-01-23T09:35:57.799Z,95792.66
2023-01-23T09:39:03.665Z,95779.69
2023-01-23T09:42:08.856Z,95792.66
2023-01-23T09:45:20.787Z,95781.50
2023-01-23T09:48:31.783Z,95781.50
2023-01-23T09:51:46.384Z,95777.78
2023-01-23T09:54:54.815Z,95769.00
2023-01-23T09:58:01.184Z,95769.00
2023-01-23T10:01:04.482Z,95762.09
2023-01-23T10:04:08.341Z,95764.75
2023-01-23T10:07:28.631Z,95765.81
2023-01-23T10:10:53.845Z,95763.16
2023-01-23T10:14:10.690Z,95775.69
2023-01-23T10:17:22.868Z,95768.75
2023-01-23T10:20:46.147Z,95761.28
2023-01-23T10:23:59.622Z,95765.03
2023-01-23T10:27:15.569Z,95766.88
2023-01-23T10:30:25.394Z,95758.88
2023-01-23T10:33:37.247Z,95767.16
2023-01-23T10:36:54.060Z,95764.50
2023-01-23T10:40:03.952Z,95760.94
2023-01-23T10:43:14.842Z,95740.53
2023-01-23T10:46:20.412Z,95763.66
2023-01-23T10:49:38.594Z,95748.25
2023-01-23T10:52:43.722Z,95750.66
2023-01-23T10:55:48.149Z,95755.19
2023-01-23T10:58:59.911Z,95758.88
2023-01-23T11:02:18.467Z,95759.72
2023-01-23T11:05:50.394Z,95752.78
2023-01-23T11:09:00.358Z,95759.19
2023-01-23T11:12:05.001Z,95746.94
2023-01-23T11:15:22.658Z,95767.69
2023-01-23T11:18:39.022Z,95748.03
2023-01-23T11:21:55.905Z,95761.03
2023-01-23T11:24:59.789Z,95759.97
2023-01-23T11:28:17.835Z,95750.97
2023-01-23T11:31:26.385Z,95745.34
2023-01-23T11:34:37.739Z,95751.53
2023-01-23T11:37:42.138Z,95760.53
2023-01-23T11:40:45.164Z,95760.25
2023-01-23T11:43:48.265Z,95754.69
2023-01-23T11:47:24.678Z,95756.06
2023-01-23T11:50:49.925Z,95765.06
2023-01-23T11:54:10.589Z,95766.44
2023-01-23T11:57:25.516Z,95764.28
2023-01-23T12:00:38.531Z,95763.47
2023-01-23T12:04:03.625Z,95753.13
2023-01-23T12:07:20.944Z,95761.09
2023-01-23T12:10:28.203Z,95755.50
2023-01-23T12:13:46.111Z,95750.16
2023-01-23T12:17:02.747Z,95742.56
2023-01-23T12:20:27.242Z,95755.00
2023-01-23T12:23:49.187Z,95751.25
2023-01-23T12:27:02.045Z,95758.16
2023-01-23T12:30:30.295Z,95757.38
2023-01-23T12:33:57.093Z,95762.19
2023-01-23T12:37:29.984Z,95756.56
2023-01-23T12:40:41.585Z,95760.81
2023-01-23T12:43:55.012Z,95744.44
2023-01-23T12:47:02.574Z,95768.59
2023-01-23T12:50:15.483Z,95764.34
2023-01-23T12:53:22.137Z,95762.47
2023-01-23T12:56:28.358Z,95761.38
2023-01-23T12:59:43.569Z,95770.44
2023-01-23T13:02:53.370Z,95768.88
2023-01-23T13:06:10.477Z,95767.28
2023-01-23T13:09:24.716Z,95771.53
2023-01-23T13:12:30.620Z,95768.38
2023-01-23T13:15:40.403Z,95773.69
2023-01-23T13:19:20.164Z,95772.88
2023-01-23T13:22:30.671Z,95766.78
2023-01-23T13:32:25.276Z,95767.38
2023-01-23T13:35:55.019Z,95776.34
2023-01-23T13:39:23.782Z,95772.09
2023-01-23T13:42:44.934Z,95785.13
2023-01-23T13:45:54.481Z,95784.09
2023-01-23T14:23:40.040Z,95807.72
2023-01-23T14:26:52.847Z,95797.06
2023-01-23T14:29:59.684Z,95808.50
2023-01-23T14:33:02.741Z,95809.31
2023-01-23T14:36:06.561Z,95810.53
2023-01-23T14:39:17.852Z,95799.22
2023-01-23T14:42:27.211Z,95812.25
2023-01-23T14:45:33.878Z,95813.03
2023-01-23T14:48:42.191Z,95811.19
2023-01-23T14:51:56.716Z,95813.84
2023-01-23T14:55:07.707Z,95815.69
2023-01-23T14:58:22.474Z,95819.94
2023-01-23T15:01:26.315Z,95821.03
2023-01-23T15:04:34.183Z,95823.69
2023-01-23T15:07:43.567Z,95825.28
2023-01-23T15:10:53.265Z,95831.69
2023-01-23T15:14:01.685Z,95841.25
2023-01-23T15:17:10.824Z,95840.16
2023-01-23T15:20:33.032Z,95847.66
2023-01-23T15:23:37.504Z,95842.03
2023-01-23T15:26:43.098Z,95853.47
2023-01-23T15:29:47.642Z,95848.16
2023-01-23T15:32:50.724Z,95844.97
2023-01-23T15:35:56.233Z,95842.31
2023-01-23T15:39:02.607Z,95840.25
2023-01-23T15:42:26.210Z,95863.06
2023-01-23T15:45:31.773Z,95860.94
2023-01-23T15:48:34.913Z,95864.13
2023-01-23T15:51:38.872Z,95862.09
2023-01-23T15:54:42.020Z,95866.00
2023-01-23T15:57:46.668Z,95876.13
2023-01-23T16:00:51.986Z,95891.03
2023-01-23T16:03:59.938Z,95888.38
2023-01-23T16:07:08.822Z,95889.16
2023-01-23T16:10:20.758Z,95889.16
2023-01-23T16:13:25.175Z,95892.91
2023-01-23T16:16:29.533Z,95895.28
2023-01-23T16:19:32.571Z,95895.84
2023-01-23T16:22:37.784Z,95895.84
2023-01-23T16:25:45.144Z,95898.78
2023-01-23T16:28:50.513Z,95895.31
2023-01-23T16:31:53.871Z,95900.38
2023-01-23T16:34:57.001Z,95903.03
2023-01-23T16:38:00.579Z,95908.34
2023-01-23T16:41:03.649Z,95909.16
2023-01-23T16:44:10.582Z,95916.06
2023-01-23T16:47:13.694Z,95912.59
2023-01-23T16:50:18.115Z,95920.59
2023-01-23T16:53:26.283Z,95900.16
2023-01-23T16:56:35.533Z,95927.00
2023-01-23T16:59:46.810Z,95922.97
2023-01-23T17:02:52.846Z,95921.91
2023-01-23T17:05:55.876Z,95914.94
2023-01-23T17:08:58.836Z,95927.94
2023-01-23T17:12:01.824Z,95920.19
2023-01-23T17:15:10.995Z,95932.16
2023-01-23T17:18:22.441Z,95930.56
2023-01-23T17:21:31.122Z,95928.63
2023-01-23T17:24:34.186Z,95934.19
2023-01-23T17:28:00.674Z,95934.72
2023-01-23T17:31:18.409Z,95936.91
2023-01-23T17:34:25.399Z,95937.75
2023-01-23T17:37:28.489Z,95933.22
2023-01-23T17:40:32.125Z,95926.59
2023-01-23T17:43:37.395Z,95940.69
2023-01-23T17:46:41.975Z,95941.78
2023-01-23T17:49:51.186Z,95946.09
2023-01-23T17:52:57.843Z,95944.00
2023-01-23T17:56:03.131Z,95923.56
2023-01-23T17:59:06.240Z,95931.03
2023-01-23T18:02:25.041Z,95949.88
2023-01-23T18:05:29.750Z,95947.22
2023-01-23T18:08:34.742Z,95942.47
2023-01-23T18:11:39.146Z,95937.13
2023-01-23T18:14:51.362Z,95949.59
2023-01-23T18:18:12.834Z,95953.59
2023-01-23T18:21:20.793Z,95962.38
2023-01-23T18:24:27.697Z,95962.66
2023-01-23T18:27:35.532Z,95965.03
2023-01-23T18:30:47.653Z,95962.66
2023-01-23T18:34:07.063Z,95968.78
2023-01-23T18:37:22.498Z,95954.97
2023-01-23T18:40:31.251Z,95961.22
2023-01-23T18:43:38.727Z,95959.91
2023-01-23T18:46:42.469Z,95968.41
2023-01-23T18:49:51.076Z,95964.72
2023-01-23T18:53:08.939Z,95956.66
2023-01-23T18:56:22.575Z,95951.91
2023-01-23T18:59:36.402Z,95963.53
2023-01-23T19:02:50.559Z,95969.38
2023-01-23T19:05:56.033Z,95972.03
2023-01-23T19:08:59.534Z,95970.97
2023-01-23T19:12:20.495Z,95958.72
2023-01-23T19:15:32.232Z,95965.34
2023-01-23T19:18:46.066Z,95960.03
2023-01-23T19:21:52.395Z,95970.44
2023-01-23T19:24:55.974Z,95960.03
2023-01-23T19:28:01.190Z,95959.28
2023-01-23T19:31:04.963Z,95980.81
2023-01-23T19:34:10.355Z,95978.41
2023-01-23T19:37:16.696Z,95983.69
2023-01-23T19:40:20.407Z,95982.66
2023-01-23T19:43:24.776Z,95987.44
2023-01-23T19:46:31.009Z,95988.53
2023-01-23T19:49:35.496Z,95987.78
2023-01-23T19:52:42.101Z,95994.41
2023-01-23T19:55:45.185Z,95981.44
2023-01-23T19:58:50.279Z,95990.16
2023-01-23T20:01:54.169Z,95989.38
2023-01-23T20:04:59.314Z,95978.44
2023-01-23T20:08:09.039Z,95980.03
2023-01-23T20:11:13.458Z,95982.19
2023-01-23T20:14:16.790Z,95979.50
2023-01-23T20:17:19.974Z,95985.63
2023-01-23T20:20:27.052Z,95988.56
2023-01-23T20:23:31.980Z,95996.84
2023-01-23T20:26:35.740Z,95987.53
2023-01-23T20:29:39.749Z,95997.41
2023-01-23T20:32:48.411Z,95988.69
2023-01-23T20:35:56.032Z,95997.69
2023-01-23T20:39:00.492Z,96001.44
2023-01-23T20:42:03.640Z,95998.25
2023-01-23T20:45:10.265Z,95983.97
2023-01-23T20:48:15.147Z,96003.06
2023-01-23T20:51:18.645Z,96010.53
2023-01-23T20:54:23.046Z,96001.53
2023-01-23T20:57:48.864Z,96010.03
2023-01-23T21:00:53.903Z,96010.81
2023-01-23T21:03:57.206Z,96012.69
2023-01-23T21:07:01.154Z,96020.66
2023-01-23T21:10:08.161Z,96018.00
2023-01-23T21:13:15.757Z,96005.28
2023-01-23T21:16:19.456Z,96025.19
2023-01-23T21:19:22.612Z,96024.41
2023-01-23T21:22:25.648Z,96015.63
2023-01-23T21:25:31.182Z,96026.28
2023-01-23T21:28:43.993Z,96013.28
2023-01-23T21:31:47.123Z,96035.06
2023-01-23T21:34:51.643Z,96030.81
2023-01-23T21:37:54.682Z,96018.06
2023-01-23T21:40:59.297Z,96025.19
2023-01-23T21:44:02.277Z,96024.41
2023-01-23T21:47:05.264Z,96024.91
2023-01-23T21:50:11.252Z,96029.16
2023-01-23T21:53:15.381Z,96016.41
2023-01-23T21:56:21.666Z,96021.75
2023-01-23T21:59:24.629Z,96008.47
2023-01-23T22:02:26.676Z,96019.88
2023-01-23T22:05:31.312Z,96008.44
2023-01-23T22:08:34.385Z,96016.13
2023-01-23T22:11:38.787Z,96002.59
2023-01-23T22:14:41.776Z,96005.78
2023-01-23T22:17:45.742Z,96003.09
2023-01-23T22:20:48.777Z,95998.06
2023-01-23T22:23:54.247Z,96003.91
2023-01-23T22:27:01.250Z,96002.88
2023-01-23T22:30:07.327Z,95990.38
2023-01-23T22:33:12.944Z,96008.44
2023-01-23T22:36:18.282Z,96002.84
2023-01-23T22:39:21.289Z,96011.59
2023-01-23T22:42:25.665Z,96012.97
2023-01-23T22:45:28.828Z,96003.91
2023-01-23T22:48:31.902Z,96000.44
2023-01-23T22:51:34.997Z,96001.53
2023-01-23T22:54:38.111Z,95995.69
2023-01-23T22:57:45.196Z,96002.59
2023-01-23T23:00:51.717Z,95996.19
2023-01-23T23:03:57.118Z,95991.44
2023-01-23T23:07:02.537Z,95988.78
2023-01-23T23:10:06.177Z,95991.44
2023-01-23T23:13:10.566Z,95991.44
2023-01-23T23:16:17.844Z,95994.09
2023-01-23T23:19:20.825Z,95996.47
2023-01-23T23:22:26.179Z,96000.50
2023-01-23T23:25:29.164Z,95996.75
2023-01-23T23:28:34.577Z,95994.38
2023-01-23T23:31:37.735Z,95999.41
2023-01-23T23:34:40.793Z,96001.53
2023-01-23T23:37:44.964Z,95998.34
2023-01-23T23:40:57.431Z,96002.59
2023-01-23T23:44:01.865Z,95978.47
2023-01-23T23:47:05.018Z,96002.59
2023-01-23T23:50:09.254Z,95987.75
2023-01-23T23:53:12.287Z,96005.81
2023-01-23T23:56:23.896Z,96003.69
2023-01-23T23:59:29.666Z,96005.81
